SCEL/SCL METAR and TAF weather

Enter ICAO airport designator
Station Type Date Time Source
SCEL METAR 2020/07/11 21:00 UTC NOAA

SCEL 112100Z 16009KT 7000 SCT150 BKN200 13/09 Q1020 NOSIG


Station Type Date Time Source
SCEL Decoded METAR 2020/07/11 21:00 UTC NOAA

Pudahuel, Chile (SCEL) 33-23S 070-47W 476M
Jul 11, 2020 - 05:00 PM EDT / 2020.07.11 2100 UTC
Wind: from the SSE (160 degrees) at 10 MPH (9 KT):0
Visibility: 4 mile(s):0
Sky conditions: mostly cloudy
Temperature: 55 F (13 C)
Dew Point: 48 F (9 C)
Relative Humidity: 76%
Pressure (altimeter): 30.12 in. Hg (1020 hPa)
ob: SCEL 112100Z 16009KT 7000 SCT150 BKN200 13/09 Q1020 NOSIG
cycle: 21

Station Type Date Time Source
SCEL TAF 2020/07/11 18:03 UTC NOAA

TAF SCEL 111616Z 1118/1218 18009KT 7000 SCT140 BKN210 TX15/1118Z TN05/1211Z
BECMG 1201/1203 15004KT 4000 BR NSC
TEMPO 1205/1214 VRB02KT 1200 BR
BECMG 1215/1217 18008KT CAVOK

Example: see airport list